EYKA/KUN METAR and TAF weather

Enter ICAO airport designator
Station Type Date Time Source
EYKA METAR 2022/01/29 13:20 UTC NOAA

EYKA 291320Z 20010KT 160V240 CAVOK 02/M05 Q1007


Station Type Date Time Source
EYKA Decoded METAR 2022/01/29 13:20 UTC NOAA

Kaunas, Lithuania (EYKA) 54-54N 023-55-12E
Jan 29, 2022 - 08:20 AM EST / 2022.01.29 1320 UTC
Wind: from the SSW (200 degrees) at 12 MPH (10 KT) (direction variable):0
Visibility: greater than 7 mile(s):0
Temperature: 35 F (2 C)
Windchill: 26 F (-3 C):1
Dew Point: 23 F (-5 C)
Relative Humidity: 59%
Pressure (altimeter): 29.74 in. Hg (1007 hPa)
ob: EYKA 291320Z 20010KT 160V240 CAVOK 02/M05 Q1007
cycle: 13

Station Type Date Time Source
EYKA TAF 2022/01/29 12:03 UTC NOAA

TAF TAF EYKA 291100Z 2912/3012 20008G18KT 8000 BKN030
BECMG 2914/2916 20018G28KT 3000 SNRA OVC010
TEMPO 2916/2922 0800 +SNRA BKN002 OVC005
BECMG 3000/3002 26022G36KT 5000 RA BKN010 OVC015
BECMG 3006/3007 26012G24KT 9000 NSW BKN015

Example: see airport list